Time;durP1;ratioP1;P1;durP2;ratioP2;P2;SDS_P1;SDS_P2;PMS_P1;PMS_P2;Temp;Humidity;BMP_temperature;BMP_pressure;BME280_temperature;BME280_humidity;BME280_pressure;Samples;Min_cycle;Max_cycle;Signal;HPM_P1;HPM_P2
2023/03/16 00:01:40;;;;;;;53.60;26.60;;;;;;;1.26;86.21;98145.07;106037;1254;62125;-78
2023/03/16 00:04:07;;;;;;;56.30;26.60;;;;;;;1.26;85.84;98141.65;106081;1254;61337;-78
2023/03/16 00:06:35;;;;;;;57.60;23.70;;;;;;;1.27;85.94;98146.45;106077;1254;61372;-78
2023/03/16 00:09:02;;;;;;;49.00;22.40;;;;;;;1.29;85.33;98148.83;106039;1254;61257;-79
2023/03/16 00:11:29;;;;;;;51.60;23.80;;;;;;;1.32;85.00;98148.27;106031;1254;61231;-79
2023/03/16 00:13:57;;;;;;;52.30;24.80;;;;;;;1.32;84.91;98150.69;106035;1255;74518;-77
2023/03/16 00:16:24;;;;;;;50.30;21.90;;;;;;;1.34;85.13;98147.09;105989;1257;69916;-80
2023/03/16 00:18:50;;;;;;;46.80;24.20;;;;;;;1.32;84.80;98149.92;106083;1254;72568;-80
2023/03/16 00:21:17;;;;;;;46.40;23.40;;;;;;;1.32;84.94;98147.85;106035;1254;61255;-79
2023/03/16 00:23:43;;;;;;;54.60;23.00;;;;;;;1.32;85.04;98147.98;106055;1254;61400;-79
2023/03/16 00:26:11;;;;;;;45.90;22.20;;;;;;;1.33;85.18;98153.19;106110;1254;61363;-79
2023/03/16 00:28:38;;;;;;;55.30;22.40;;;;;;;1.34;84.96;98156.14;106033;1254;70045;-78
2023/03/16 00:31:05;;;;;;;40.60;19.70;;;;;;;1.35;85.27;98156.05;106208;1258;61205;-80
2023/03/16 00:33:34;;;;;;;40.10;20.30;;;;;;;1.32;85.04;98156.07;107083;1254;61137;-79
2023/03/16 00:36:01;;;;;;;47.70;19.50;;;;;;;1.26;85.05;98160.18;107990;1254;61234;-79
2023/03/16 00:38:35;;;;;;;38.30;19.60;;;;;;;1.23;85.43;98167.81;106055;1254;74640;-78
2023/03/16 00:41:02;;;;;;;39.30;18.40;;;;;;;1.23;85.28;98167.94;106123;1254;71057;-80
2023/03/16 00:43:30;;;;;;;40.00;18.50;;;;;;;1.23;85.45;98169.20;106029;1256;72665;-80
2023/03/16 00:46:05;;;;;;;34.70;17.90;;;;;;;1.19;85.46;98174.67;106100;1254;61284;-79
2023/03/16 00:48:35;;;;;;;40.70;18.90;;;;;;;1.18;85.06;98176.51;106035;1254;61272;-80
2023/03/16 00:51:03;;;;;;;37.40;17.60;;;;;;;1.15;85.39;98179.52;106079;1254;74519;-79
2023/03/16 00:53:30;;;;;;;38.60;17.70;;;;;;;1.10;85.39;98178.35;106074;1254;71288;-80
2023/03/16 00:55:57;;;;;;;40.60;17.20;;;;;;;1.07;85.57;98182.52;106062;1255;72534;-79
2023/03/16 00:58:23;;;;;;;35.20;16.60;;;;;;;1.07;85.61;98181.54;105999;1254;61278;-78
2023/03/16 01:00:52;;;;;;;39.20;19.80;;;;;;;1.02;85.89;98180.98;106083;1254;61286;-79
2023/03/16 01:03:19;;;;;;;38.30;16.30;;;;;;;1.01;85.59;98179.77;106010;1258;74527;-80
2023/03/16 01:05:46;;;;;;;43.40;18.60;;;;;;;1.00;85.64;98183.30;106029;1254;71456;-79
2023/03/16 01:08:12;;;;;;;33.10;16.80;;;;;;;0.96;86.50;98186.45;106542;1254;61233;-79
2023/03/16 01:10:39;;;;;;;43.00;18.40;;;;;;;0.95;86.26;98187.90;106129;1258;61388;-78
2023/03/16 01:13:06;;;;;;;38.60;19.00;;;;;;;0.90;86.57;98190.13;106070;1254;61209;-79
2023/03/16 01:15:35;;;;;;;41.60;18.80;;;;;;;0.86;86.55;98189.98;106068;1254;73566;-79
2023/03/16 01:18:02;;;;;;;35.40;17.50;;;;;;;0.81;86.72;98195.77;106025;1258;69907;-78
2023/03/16 01:20:28;;;;;;;39.60;17.90;;;;;;;0.78;87.05;98195.53;106040;1254;61283;-78
2023/03/16 01:22:55;;;;;;;38.10;16.50;;;;;;;0.74;87.08;98195.18;106106;1256;61382;-78
2023/03/16 01:25:23;;;;;;;37.40;18.00;;;;;;;0.74;87.03;98197.10;106053;1254;61141;-79
2023/03/16 01:27:49;;;;;;;45.10;20.70;;;;;;;0.70;87.36;98198.98;106116;1258;73654;-78
2023/03/16 01:30:16;;;;;;;46.40;18.90;;;;;;;0.66;87.68;98199.15;106090;1254;61280;-78
2023/03/16 01:32:42;;;;;;;40.70;18.30;;;;;;;0.64;87.44;98202.08;106089;1254;61333;-78
2023/03/16 01:35:08;;;;;;;42.60;18.70;;;;;;;0.64;87.47;98202.74;106079;1254;61356;-78
2023/03/16 01:37:35;;;;;;;41.70;19.20;;;;;;;0.56;88.02;98203.10;106056;1260;61436;-79
2023/03/16 01:40:05;;;;;;;39.40;18.60;;;;;;;0.49;88.48;98201.10;106092;1254;61363;-78
2023/03/16 01:42:31;;;;;;;47.50;19.50;;;;;;;0.45;88.89;98207.13;106990;1254;70445;-79
2023/03/16 01:45:04;;;;;;;39.90;19.30;;;;;;;0.41;89.47;98208.71;106069;1255;61363;-78
2023/03/16 01:47:37;;;;;;;45.70;18.40;;;;;;;0.37;89.71;98209.60;106075;1254;61329;-79
2023/03/16 01:50:04;;;;;;;31.20;15.70;;;;;;;0.33;90.17;98209.08;105858;1254;265670;-79
2023/03/16 01:52:32;;;;;;;39.30;17.30;;;;;;;0.32;90.37;98210.52;106001;1260;73630;-79
2023/03/16 01:55:03;;;;;;;33.40;18.10;;;;;;;0.26;90.94;98211.47;106779;1255;69841;-78
2023/03/16 01:57:35;;;;;;;38.80;18.20;;;;;;;0.24;90.94;98212.71;105997;1258;73069;-78
2023/03/16 02:00:19;;;;;;;36.50;16.40;;;;;;;0.19;91.49;98211.34;106042;1258;61957;-80
2023/03/16 02:02:48;;;;;;;43.90;18.20;;;;;;;0.19;91.28;98217.45;106033;1258;61232;-78
2023/03/16 02:05:18;;;;;;;41.70;19.20;;;;;;;0.16;91.99;98212.15;106003;1254;73403;-79
2023/03/16 02:07:49;;;;;;;42.90;18.50;;;;;;;0.14;92.26;98214.01;106002;1254;70971;-78
2023/03/16 02:10:17;;;;;;;36.50;16.80;;;;;;;0.12;92.38;98215.04;106016;1255;71564;-78
2023/03/16 02:12:43;;;;;;;39.50;18.20;;;;;;;0.10;92.03;98219.92;106003;1254;61271;-79
2023/03/16 02:15:10;;;;;;;33.60;17.90;;;;;;;0.07;92.53;98222.41;106042;1254;62428;-79
2023/03/16 02:17:37;;;;;;;38.90;18.20;;;;;;;0.06;92.63;98225.57;106076;1257;73311;-78
2023/03/16 02:20:16;;;;;;;42.40;19.40;;;;;;;0.03;93.39;98225.83;106067;1255;61267;-80
2023/03/16 02:22:45;;;;;;;35.50;18.10;;;;;;;0.01;92.41;98228.17;106030;1258;70896;-78
2023/03/16 02:25:12;;;;;;;38.30;19.90;;;;;;;0.02;91.31;98234.82;106043;1256;61243;-79
2023/03/16 02:28:03;;;;;;;38.10;18.50;;;;;;;-0.00;91.87;98235.46;105999;1260;61255;-79
2023/03/16 02:30:29;;;;;;;38.10;19.90;;;;;;;-0.01;93.01;98241.41;106023;1256;73378;-79
2023/03/16 02:32:56;;;;;;;37.30;19.00;;;;;;;-0.04;93.28;98244.61;107313;1254;71385;-79
2023/03/16 02:35:22;;;;;;;39.80;19.60;;;;;;;-0.06;93.14;98248.06;105982;1258;61299;-81
2023/03/16 02:37:49;;;;;;;42.10;18.70;;;;;;;-0.08;93.11;98249.95;106071;1258;61216;-80
2023/03/16 02:40:17;;;;;;;39.90;21.40;;;;;;;-0.11;93.21;98249.52;106193;1258;61334;-80
2023/03/16 02:42:43;;;;;;;39.90;21.50;;;;;;;-0.15;92.90;98254.02;106033;1255;72753;-79
2023/03/16 02:45:09;;;;;;;43.50;18.20;;;;;;;-0.19;92.67;98258.88;106057;1258;61353;-78
2023/03/16 02:47:40;;;;;;;38.50;18.10;;;;;;;-0.22;94.27;98267.36;106189;1256;61283;-80
2023/03/16 02:50:08;;;;;;;38.60;20.10;;;;;;;-0.26;94.94;98273.66;106910;1254;61436;-78
2023/03/16 02:52:34;;;;;;;36.80;18.20;;;;;;;-0.31;95.65;98271.30;109299;1254;60170;-80
2023/03/16 02:55:02;;;;;;;40.80;19.90;;;;;;;-0.30;96.08;98273.70;106997;1258;74484;-78
2023/03/16 02:57:28;;;;;;;41.70;19.20;;;;;;;-0.30;95.43;98274.52;106022;1256;69936;-79
2023/03/16 02:59:55;;;;;;;39.00;18.20;;;;;;;-0.32;95.34;98276.25;106038;1254;61264;-78
2023/03/16 03:02:21;;;;;;;43.80;20.00;;;;;;;-0.35;95.04;98282.35;106039;1258;61347;-78
2023/03/16 03:04:48;;;;;;;38.40;20.00;;;;;;;-0.41;96.38;98279.93;106062;1254;61284;-78
2023/03/16 03:07:14;;;;;;;37.50;20.80;;;;;;;-0.40;94.75;98279.80;106054;1258;61239;-78
2023/03/16 03:09:41;;;;;;;36.90;18.00;;;;;;;-0.42;94.05;98282.76;106048;1254;61331;-79
2023/03/16 03:12:08;;;;;;;46.10;19.30;;;;;;;-0.45;93.87;98283.14;106023;1256;72616;-78
2023/03/16 03:14:38;;;;;;;36.20;19.90;;;;;;;-0.49;93.81;98282.66;106020;1258;61330;-78
2023/03/16 03:17:06;;;;;;;45.00;19.80;;;;;;;-0.55;94.10;98288.73;106002;1255;61240;-78
2023/03/16 03:19:33;;;;;;;39.10;19.70;;;;;;;-0.61;93.51;98294.31;109267;1254;72788;-79
2023/03/16 03:22:03;;;;;;;36.10;20.40;;;;;;;-0.70;94.45;98298.38;109288;1254;71358;-79
2023/03/16 03:24:30;;;;;;;38.90;21.30;;;;;;;-0.78;92.63;98302.66;108088;1254;72481;-78
2023/03/16 03:26:59;;;;;;;38.70;20.20;;;;;;;-0.85;91.97;98302.88;106159;1256;62230;-78
2023/03/16 03:29:33;;;;;;;36.10;20.90;;;;;;;-0.88;91.98;98306.34;106033;1258;61239;-79
2023/03/16 03:32:00;;;;;;;39.20;20.20;;;;;;;-0.94;91.54;98311.73;106043;1254;74396;-79
2023/03/16 03:34:28;;;;;;;42.50;18.60;;;;;;;-0.97;91.51;98313.80;109142;1254;71590;-80
2023/03/16 03:36:54;;;;;;;39.20;19.20;;;;;;;-1.00;91.08;98316.01;107443;1254;70547;-79
2023/03/16 03:39:21;;;;;;;64.70;23.20;;;;;;;-1.04;91.38;98316.67;106017;1260;61334;-78
2023/03/16 03:41:47;;;;;;;33.40;21.00;;;;;;;-1.07;91.36;98324.89;106028;1256;61354;-78
2023/03/16 03:44:14;;;;;;;37.80;19.40;;;;;;;-1.11;91.17;98328.71;106020;1258;61246;-79
2023/03/16 03:46:40;;;;;;;36.80;19.00;;;;;;;-1.14;91.03;98331.45;106011;1255;63407;-78
2023/03/16 03:49:06;;;;;;;38.10;20.00;;;;;;;-1.20;90.78;98334.77;106025;1254;61333;-78
2023/03/16 03:51:33;;;;;;;43.20;22.30;;;;;;;-1.24;91.55;98332.38;106035;1255;61375;-80
2023/03/16 03:53:59;;;;;;;46.10;23.60;;;;;;;-1.29;90.75;98335.86;106048;1258;61369;-79
2023/03/16 03:56:26;;;;;;;43.20;24.40;;;;;;;-1.36;90.46;98337.09;105992;1254;61353;-78
2023/03/16 03:58:52;;;;;;;47.90;26.10;;;;;;;-1.43;90.53;98337.19;105990;1258;61327;-79
2023/03/16 04:01:19;;;;;;;54.20;25.30;;;;;;;-1.46;91.01;98345.24;106959;1254;61420;-79
2023/03/16 04:03:45;;;;;;;49.90;26.40;;;;;;;-1.51;90.54;98347.23;106173;1254;61298;-79
2023/03/16 04:06:11;;;;;;;45.40;24.50;;;;;;;-1.55;90.56;98351.37;106024;1258;61225;-79
2023/03/16 04:08:38;;;;;;;58.70;26.80;;;;;;;-1.63;90.76;98352.21;106020;1256;61360;-79
2023/03/16 04:11:04;;;;;;;48.30;24.20;;;;;;;-1.67;90.64;98355.41;106708;1253;63183;-79
2023/03/16 04:13:31;;;;;;;49.90;25.90;;;;;;;-1.71;90.69;98351.98;109415;1253;58923;-79
2023/03/16 04:15:58;;;;;;;49.20;24.20;;;;;;;-1.72;91.27;98354.71;107278;1253;60351;-79
2023/03/16 04:18:25;;;;;;;54.90;26.60;;;;;;;-1.71;91.11;98356.39;107036;1256;61357;-79
2023/03/16 04:20:54;;;;;;;50.00;25.30;;;;;;;-1.69;90.73;98352.13;106017;1256;61220;-79
2023/03/16 04:23:21;;;;;;;54.70;26.20;;;;;;;-1.72;90.50;98351.87;106059;1258;70365;-78
2023/03/16 04:25:47;;;;;;;45.00;25.40;;;;;;;-1.76;91.68;98362.10;105975;1256;72789;-78
2023/03/16 04:28:16;;;;;;;49.70;26.70;;;;;;;-1.79;91.51;98360.23;105956;1256;61258;-80
2023/03/16 04:30:43;;;;;;;48.50;25.40;;;;;;;-1.82;91.59;98363.84;106063;1256;61224;-78
2023/03/16 04:33:09;;;;;;;49.30;26.10;;;;;;;-1.85;92.12;98365.05;106015;1254;61350;-78
2023/03/16 04:35:35;;;;;;;45.30;22.00;;;;;;;-1.92;94.13;98363.67;106012;1258;61267;-78
2023/03/16 04:38:02;;;;;;;39.00;20.40;;;;;;;-1.98;94.45;98369.23;106013;1256;61228;-78
2023/03/16 04:40:29;;;;;;;53.60;28.40;;;;;;;-2.05;95.80;98370.42;105974;1255;61344;-78
2023/03/16 04:42:56;;;;;;;51.10;22.60;;;;;;;-2.07;94.46;98367.63;106443;1254;61198;-78
2023/03/16 04:45:23;;;;;;;47.60;24.10;;;;;;;-2.09;93.68;98370.39;106868;1256;72586;-78
2023/03/16 04:47:49;;;;;;;54.30;26.70;;;;;;;-2.12;98.65;98371.64;109258;1254;70165;-78
2023/03/16 04:50:16;;;;;;;58.40;26.50;;;;;;;-2.15;99.87;98374.16;108111;1257;61283;-78
2023/03/16 04:52:42;;;;;;;56.10;26.00;;;;;;;-2.17;99.91;98374.93;106100;1256;61321;-79
2023/03/16 04:55:09;;;;;;;53.10;27.30;;;;;;;-2.21;100.00;98380.58;108263;1255;61343;-79
2023/03/16 04:57:35;;;;;;;45.60;23.40;;;;;;;-2.23;99.66;98383.11;106054;1253;61238;-80
2023/03/16 05:00:08;;;;;;;40.80;21.40;;;;;;;-2.28;99.57;98389.91;106174;1259;61235;-81
2023/03/16 05:02:35;;;;;;;42.50;21.20;;;;;;;-2.32;100.00;98394.83;106246;1258;72680;-79
2023/03/16 05:05:03;;;;;;;46.80;21.80;;;;;;;-2.34;99.28;98397.84;106098;1253;61323;-78
2023/03/16 05:07:30;;;;;;;39.50;20.00;;;;;;;-2.35;99.36;98400.12;106312;1253;61837;-78
2023/03/16 05:09:56;;;;;;;46.00;21.20;;;;;;;-2.34;98.45;98401.02;106226;1253;74513;-79
2023/03/16 05:12:35;;;;;;;56.50;22.50;;;;;;;-2.31;98.12;98400.56;106163;1257;62163;-79
2023/03/16 05:15:01;;;;;;;48.60;23.60;;;;;;;-2.27;99.75;98404.45;106145;1253;61375;-79
2023/03/16 05:17:28;;;;;;;54.30;25.50;;;;;;;-2.21;99.94;98404.83;106163;1253;61235;-79
2023/03/16 05:19:55;;;;;;;61.90;25.50;;;;;;;-2.23;100.00;98405.46;106037;1256;61280;-80
2023/03/16 05:22:22;;;;;;;54.00;27.20;;;;;;;-2.25;100.00;98407.08;106026;1257;74877;-79
2023/03/16 05:24:48;;;;;;;53.40;25.40;;;;;;;-2.21;100.00;98409.98;105988;1258;71478;-78
2023/03/16 05:27:15;;;;;;;54.10;26.10;;;;;;;-2.21;100.00;98408.42;105967;1258;61210;-80
2023/03/16 05:29:45;;;;;;;59.90;25.00;;;;;;;-2.28;100.00;98411.52;105970;1256;61231;-79
2023/03/16 05:32:12;;;;;;;56.90;29.20;;;;;;;-2.30;100.00;98408.59;106000;1254;61248;-80
2023/03/16 05:34:38;;;;;;;57.90;28.10;;;;;;;-2.33;100.00;98413.45;106002;1256;74508;-80
2023/03/16 05:37:05;;;;;;;60.50;31.20;;;;;;;-2.30;100.00;98413.65;106525;1258;61146;-78
2023/03/16 05:39:33;;;;;;;65.60;30.60;;;;;;;-2.23;100.00;98414.25;106002;1256;61277;-78
2023/03/16 05:41:59;;;;;;;62.10;31.70;;;;;;;-2.17;100.00;98414.60;105973;1254;61632;-79
2023/03/16 05:44:25;;;;;;;63.40;31.70;;;;;;;-2.14;100.00;98416.88;106004;1254;61337;-80
2023/03/16 05:46:52;;;;;;;62.70;31.70;;;;;;;-2.06;100.00;98423.09;106002;1258;61292;-79
2023/03/16 05:49:19;;;;;;;70.40;30.60;;;;;;;-1.98;100.00;98423.70;105986;1256;70346;-80
2023/03/16 05:51:45;;;;;;;59.40;30.60;;;;;;;-1.90;100.00;98418.09;105962;1258;61219;-79
2023/03/16 05:54:12;;;;;;;63.50;30.00;;;;;;;-1.82;100.00;98418.37;105959;1258;61424;-78
2023/03/16 05:56:39;;;;;;;59.20;31.80;;;;;;;-1.73;100.00;98423.06;105994;1258;61370;-80
2023/03/16 05:59:05;;;;;;;70.80;36.10;;;;;;;-1.66;100.00;98422.10;105956;1258;61207;-79
2023/03/16 06:01:33;;;;;;;65.40;34.80;;;;;;;-1.58;100.00;98424.90;105963;1256;71952;-80
2023/03/16 06:04:01;;;;;;;68.10;34.20;;;;;;;-1.45;100.00;98423.79;106141;1256;72386;-79
2023/03/16 06:06:28;;;;;;;73.80;35.10;;;;;;;-1.33;100.00;98426.37;106221;1255;61250;-79
2023/03/16 06:08:54;;;;;;;76.40;32.90;;;;;;;-1.20;100.00;98425.08;106140;1261;61315;-78
2023/03/16 06:11:21;;;;;;;73.20;33.70;;;;;;;-1.07;100.00;98428.39;106041;1254;61254;-80
2023/03/16 06:13:47;;;;;;;58.30;29.60;;;;;;;-0.99;100.00;98430.07;105943;1256;61254;-78
2023/03/16 06:16:15;;;;;;;68.30;31.30;;;;;;;-0.87;100.00;98435.70;106025;1259;61270;-79
2023/03/16 06:18:42;;;;;;;65.00;31.20;;;;;;;-0.72;100.00;98439.96;105959;1255;61408;-79
2023/03/16 06:21:08;;;;;;;61.00;27.10;;;;;;;-0.59;100.00;98441.13;106001;1256;61159;-79
2023/03/16 06:23:35;;;;;;;55.20;26.30;;;;;;;-0.44;100.00;98447.55;105981;1256;61274;-78
2023/03/16 06:26:01;;;;;;;49.50;24.50;;;;;;;-0.27;100.00;98449.94;106085;1254;61285;-80
2023/03/16 06:28:28;;;;;;;59.80;25.80;;;;;;;-0.09;100.00;98450.45;105970;1256;61440;-78
2023/03/16 06:30:55;;;;;;;44.40;22.30;;;;;;;0.06;100.00;98450.48;106028;1256;61945;-80
2023/03/16 06:33:22;;;;;;;42.90;20.50;;;;;;;0.17;100.00;98453.30;106178;1257;61207;-79
2023/03/16 06:35:49;;;;;;;48.20;23.40;;;;;;;0.28;100.00;98451.66;106351;1253;74945;-78
2023/03/16 06:38:16;;;;;;;50.50;22.50;;;;;;;0.41;100.00;98451.96;106180;1253;61292;-79
2023/03/16 06:40:42;;;;;;;41.50;23.00;;;;;;;0.51;100.00;98454.52;106187;1258;71359;-78
2023/03/16 06:43:09;;;;;;;49.90;23.80;;;;;;;0.61;100.00;98457.18;107062;1253;59249;-78
2023/03/16 06:45:35;;;;;;;55.10;22.20;;;;;;;0.74;100.00;98463.27;107407;1254;61339;-79
2023/03/16 06:48:02;;;;;;;40.40;22.40;;;;;;;0.93;99.97;98465.17;106106;1256;61149;-78
2023/03/16 06:50:28;;;;;;;39.60;20.90;;;;;;;1.10;99.78;98468.45;106238;1256;61121;-79
2023/03/16 06:52:55;;;;;;;41.20;21.00;;;;;;;1.20;98.88;98470.34;106128;1258;61208;-78
2023/03/16 06:55:21;;;;;;;44.90;21.60;;;;;;;1.20;98.13;98470.18;106115;1256;61146;-78
2023/03/16 06:57:48;;;;;;;56.40;22.80;;;;;;;1.25;98.22;98474.29;105995;1258;61320;-80
2023/03/16 07:00:14;;;;;;;37.00;19.00;;;;;;;1.34;97.88;98478.08;106077;1256;61235;-79
2023/03/16 07:02:42;;;;;;;42.10;21.60;;;;;;;1.39;97.49;98476.23;106051;1256;71444;-78
2023/03/16 07:05:12;;;;;;;39.60;20.50;;;;;;;1.44;97.34;98481.17;106176;1256;72267;-78
2023/03/16 07:07:44;;;;;;;40.40;17.90;;;;;;;1.46;96.73;98482.78;106668;1256;61336;-78
2023/03/16 07:10:12;;;;;;;41.00;18.60;;;;;;;1.46;96.49;98486.56;106723;1253;61267;-80
2023/03/16 07:12:39;;;;;;;43.20;19.00;;;;;;;1.51;97.14;98487.98;106572;1259;75325;-78
2023/03/16 07:15:06;;;;;;;56.20;24.00;;;;;;;1.59;96.77;98490.50;106229;1256;71067;-78
2023/03/16 07:17:33;;;;;;;45.80;23.40;;;;;;;1.68;96.25;98492.58;106106;1257;72589;-79
2023/03/16 07:20:09;;;;;;;54.50;28.30;;;;;;;1.97;96.01;98494.74;106337;1258;61250;-78
2023/03/16 07:22:36;;;;;;;46.70;25.20;;;;;;;2.37;94.88;98496.56;106191;1256;61289;-79
2023/03/16 07:25:06;;;;;;;44.60;24.10;;;;;;;2.67;96.21;98494.25;106167;1256;74436;-80
2023/03/16 07:27:40;;;;;;;41.10;22.80;;;;;;;3.04;96.67;98493.70;107465;1256;71949;-79
2023/03/16 07:30:10;;;;;;;40.40;21.50;;;;;;;3.65;92.85;98496.13;106654;1258;73746;-80
2023/03/16 07:32:40;;;;;;;38.20;21.90;;;;;;;4.82;93.72;98493.22;106719;1254;61167;-78
2023/03/16 07:35:09;;;;;;;41.80;22.00;;;;;;;5.79;93.30;98496.63;107384;1254;61240;-80
2023/03/16 07:37:39;;;;;;;52.30;29.60;;;;;;;6.42;92.94;98498.32;107931;1255;74814;-80
2023/03/16 07:40:08;;;;;;;35.90;18.80;;;;;;;6.96;91.23;98499.42;106019;1254;70886;-80
2023/03/16 07:42:35;;;;;;;37.30;15.70;;;;;;;7.16;90.22;98498.20;107637;1258;73113;-78
2023/03/16 07:45:03;;;;;;;43.90;26.00;;;;;;;7.27;81.77;98505.62;106145;1257;61383;-80
2023/03/16 07:47:32;;;;;;;38.90;23.00;;;;;;;6.27;72.94;98512.95;106596;1258;61177;-80
2023/03/16 07:50:00;;;;;;;34.50;18.20;;;;;;;5.94;77.32;98511.17;106104;1256;73631;-80
2023/03/16 07:52:27;;;;;;;28.60;14.80;;;;;;;5.73;78.06;98508.29;106142;1258;72411;-79
2023/03/16 07:54:54;;;;;;;21.50;11.20;;;;;;;5.52;76.14;98509.64;106199;1261;72699;-78
2023/03/16 07:57:21;;;;;;;27.40;11.40;;;;;;;5.97;73.78;98512.88;106088;1253;61248;-79
2023/03/16 07:59:48;;;;;;;20.50;11.60;;;;;;;6.82;71.96;98519.41;106131;1253;59233;-80
2023/03/16 08:02:18;;;;;;;23.00;11.80;;;;;;;6.35;69.09;98518.98;106203;1258;76629;-79
2023/03/16 08:04:46;;;;;;;21.00;10.50;;;;;;;6.10;70.30;98522.55;106783;1260;71785;-79
2023/03/16 08:07:14;;;;;;;37.00;21.10;;;;;;;5.93;71.60;98521.54;106580;1261;72578;-80
2023/03/16 08:09:54;;;;;;;19.30;10.50;;;;;;;6.02;68.55;98524.23;107035;1254;61143;-80
2023/03/16 08:12:24;;;;;;;27.10;16.10;;;;;;;7.07;66.74;98521.18;106165;1260;60688;-80
2023/03/16 08:14:54;;;;;;;26.90;11.90;;;;;;;8.19;64.64;98519.41;106199;1254;75070;-80
2023/03/16 08:17:21;;;;;;;25.20;14.20;;;;;;;8.86;60.57;98522.04;106151;1258;71051;-79
2023/03/16 08:19:53;;;;;;;24.00;13.90;;;;;;;8.59;59.99;98521.34;105965;1254;73467;-78
2023/03/16 08:22:23;;;;;;;24.70;13.10;;;;;;;8.22;60.50;98522.36;105908;1259;61333;-80
2023/03/16 08:24:51;;;;;;;22.40;13.00;;;;;;;9.89;62.35;98520.12;106108;1254;61150;-79
2023/03/16 08:27:19;;;;;;;19.50;10.00;;;;;;;10.35;56.05;98531.77;106009;1253;73187;-78
2023/03/16 08:29:46;;;;;;;22.70;12.70;;;;;;;10.72;51.77;98531.14;106032;1256;71791;-78
2023/03/16 08:32:14;;;;;;;15.00;9.60;;;;;;;11.10;48.28;98537.69;105996;1259;71700;-77
2023/03/16 08:34:40;;;;;;;14.30;8.40;;;;;;;11.20;48.54;98532.99;108591;1256;61420;-77
2023/03/16 08:37:08;;;;;;;12.20;6.80;;;;;;;9.16;49.60;98531.77;106111;1259;61225;-80
2023/03/16 08:39:40;;;;;;;14.90;8.70;;;;;;;8.12;52.41;98531.70;106210;1253;73668;-79
2023/03/16 08:42:09;;;;;;;22.80;10.30;;;;;;;7.28;55.24;98533.35;106543;1259;71727;-80
2023/03/16 08:44:36;;;;;;;13.90;8.50;;;;;;;7.06;56.31;98534.76;106774;1254;71101;-79
2023/03/16 08:47:04;;;;;;;20.60;10.10;;;;;;;9.01;52.90;98536.24;106090;1259;61264;-77
2023/03/16 08:49:30;;;;;;;19.60;10.90;;;;;;;9.78;49.65;98532.62;106113;1259;61669;-77
2023/03/16 08:52:00;;;;;;;15.50;9.50;;;;;;;10.99;46.96;98536.88;106093;1258;74309;-79
2023/03/16 08:54:29;;;;;;;17.40;10.00;;;;;;;11.61;43.65;98536.54;106251;1257;69928;-77
2023/03/16 08:56:57;;;;;;;15.10;9.70;;;;;;;12.14;42.79;98532.70;106140;1259;72596;-80
2023/03/16 08:59:24;;;;;;;13.10;8.80;;;;;;;14.27;42.10;98532.95;105943;1256;61333;-77
2023/03/16 09:01:53;;;;;;;13.90;7.60;;;;;;;14.27;36.98;98534.72;105956;1257;61279;-80
2023/03/16 09:04:20;;;;;;;20.80;8.00;;;;;;;13.70;35.97;98532.24;106002;1258;75815;-79
2023/03/16 09:06:50;;;;;;;13.70;7.40;;;;;;;14.48;34.82;98530.76;105908;1259;69837;-77
2023/03/16 09:09:23;;;;;;;14.80;7.80;;;;;;;12.74;37.64;98530.59;106095;1258;73439;-79
2023/03/16 09:11:51;;;;;;;9.50;5.20;;;;;;;11.74;39.84;98532.39;105990;1256;61340;-77
2023/03/16 09:14:18;;;;;;;12.60;7.30;;;;;;;10.32;41.73;98530.40;105921;1261;62340;-79
2023/03/16 09:16:45;;;;;;;23.70;13.10;;;;;;;9.65;43.95;98532.63;105880;1261;74265;-76
2023/03/16 09:19:12;;;;;;;17.50;9.00;;;;;;;8.19;45.92;98531.59;106182;1253;71320;-77
2023/03/16 09:21:39;;;;;;;11.20;5.90;;;;;;;7.37;47.98;98533.45;106048;1256;73630;-78
2023/03/16 09:24:09;;;;;;;7.50;4.50;;;;;;;7.14;48.10;98535.61;106002;1260;61239;-79
2023/03/16 09:26:36;;;;;;;10.90;5.40;;;;;;;6.46;49.05;98534.21;106027;1259;62017;-79
2023/03/16 09:29:05;;;;;;;12.30;5.80;;;;;;;6.47;50.54;98533.31;105955;1259;75321;-80
2023/03/16 09:31:33;;;;;;;13.90;6.70;;;;;;;5.95;51.16;98530.80;105942;1258;71904;-78
2023/03/16 09:34:00;;;;;;;11.50;6.40;;;;;;;5.59;53.38;98527.91;106026;1259;72993;-78
2023/03/16 09:36:29;;;;;;;17.00;7.80;;;;;;;5.71;54.38;98522.70;106082;1258;61305;-79
2023/03/16 09:38:56;;;;;;;15.70;9.50;;;;;;;5.59;55.33;98528.08;105975;1258;61227;-78
2023/03/16 09:41:42;;;;;;;15.30;7.60;;;;;;;5.47;55.00;98529.75;105874;1256;73508;-78
2023/03/16 09:44:41;;;;;;;11.50;5.30;;;;;;;5.20;54.25;98527.40;106022;1260;71229;-78
2023/03/16 09:47:10;;;;;;;9.40;5.30;;;;;;;4.71;52.22;98533.22;106082;1256;71385;-78
2023/03/16 09:49:41;;;;;;;19.80;8.30;;;;;;;4.66;52.89;98538.45;106144;1254;61244;-80
2023/03/16 09:52:34;;;;;;;13.50;7.40;;;;;;;4.60;55.09;98539.65;106373;1258;59355;-81
2023/03/16 09:55:05;;;;;;;9.00;5.10;;;;;;;4.51;53.75;98542.95;106022;1262;74569;-78
2023/03/16 09:57:38;;;;;;;23.60;7.60;;;;;;;4.45;54.66;98544.45;105929;1258;70373;-79
2023/03/16 10:00:16;;;;;;;13.50;6.30;;;;;;;4.31;55.90;98545.14;106000;1259;72521;-79
2023/03/16 10:03:10;;;;;;;11.30;5.80;;;;;;;4.30;54.53;98544.85;106421;1258;62304;-80
2023/03/16 10:05:38;;;;;;;15.80;6.40;;;;;;;4.45;54.03;98542.22;105963;1258;61257;-80
2023/03/16 10:08:21;;;;;;;18.10;6.60;;;;;;;4.71;53.73;98548.80;105856;1261;74930;-78
2023/03/16 10:11:13;;;;;;;11.90;4.90;;;;;;;4.90;53.63;98552.13;106024;1256;69766;-78
2023/03/16 10:14:00;;;;;;;38.40;18.80;;;;;;;5.33;53.15;98552.05;106051;1254;73444;-80
2023/03/16 10:16:46;;;;;;;11.70;6.00;;;;;;;5.57;52.51;98558.48;106021;1258;62351;-80
2023/03/16 10:19:45;;;;;;;9.90;5.30;;;;;;;5.26;51.03;98562.03;106007;1259;61232;-80
2023/03/16 10:22:21;;;;;;;11.50;5.10;;;;;;;4.95;49.79;98564.30;105857;1259;74453;-80
2023/03/16 10:25:19;;;;;;;12.40;6.10;;;;;;;4.61;51.39;98566.20;106088;1259;70975;-79
2023/03/16 10:27:48;;;;;;;9.00;5.10;;;;;;;4.66;53.18;98566.80;106069;1256;73644;-79
2023/03/16 10:30:23;;;;;;;8.90;4.80;;;;;;;4.70;52.15;98567.22;105986;1261;59567;-80
2023/03/16 10:32:50;;;;;;;10.00;4.90;;;;;;;4.85;52.22;98568.38;106184;1258;61253;-80
2023/03/16 10:35:33;;;;;;;8.40;4.60;;;;;;;4.96;51.58;98570.53;106103;1262;73531;-80
2023/03/16 10:38:01;;;;;;;12.40;5.50;;;;;;;4.95;48.99;98572.29;106050;1259;71980;-77
2023/03/16 10:40:32;;;;;;;13.50;5.40;;;;;;;5.28;50.95;98570.05;105975;1261;73675;-78
2023/03/16 10:43:11;;;;;;;9.40;4.90;;;;;;;5.50;50.85;98578.78;106057;1254;61226;-79
2023/03/16 10:45:41;;;;;;;16.50;5.70;;;;;;;5.43;51.91;98578.54;106156;1258;61234;-80
2023/03/16 10:48:14;;;;;;;9.30;4.80;;;;;;;5.17;52.93;98578.27;106226;1254;73459;-81
2023/03/16 10:50:53;;;;;;;10.50;4.80;;;;;;;4.92;53.44;98579.99;106040;1263;69133;-78
2023/03/16 10:53:25;;;;;;;8.70;5.70;;;;;;;4.97;52.83;98580.02;106153;1258;72666;-80
2023/03/16 10:55:57;;;;;;;13.10;5.30;;;;;;;5.23;53.20;98575.72;106077;1259;61240;-81
2023/03/16 10:58:26;;;;;;;10.00;2.40;;;;;;;5.20;52.86;98576.55;105998;1257;61221;-81
2023/03/16 11:00:53;;;;;;;7.00;2.20;;;;;;;4.89;49.61;98578.57;106064;1263;75053;-81
2023/03/16 11:03:26;;;;;;;7.00;2.80;;;;;;;4.68;49.96;98575.92;105978;1254;70937;-78
2023/03/16 11:06:04;;;;;;;7.50;3.50;;;;;;;4.70;51.28;98578.58;106571;1254;73423;-79
2023/03/16 11:08:36;;;;;;;12.60;5.00;;;;;;;4.76;52.45;98577.72;106059;1256;61289;-81
2023/03/16 11:11:12;;;;;;;10.30;3.90;;;;;;;4.78;53.23;98573.35;105931;1264;61151;-83
2023/03/16 11:13:45;;;;;;;10.80;4.40;;;;;;;4.82;53.27;98568.58;106475;1260;73475;-80
2023/03/16 11:16:37;;;;;;;9.20;3.50;;;;;;;4.90;53.13;98567.10;106537;1254;70947;-81
2023/03/16 11:19:17;;;;;;;5.20;3.90;;;;;;;5.01;52.39;98567.34;106399;1254;73580;-79
2023/03/16 11:22:02;;;;;;;9.70;4.00;;;;;;;5.12;51.96;98563.58;106356;1254;62103;-78
2023/03/16 11:24:44;;;;;;;11.30;4.00;;;;;;;5.29;50.77;98564.42;106253;1259;60269;-79